createdAt,value
2018-07-06T00:01:42.029Z,79.70
2018-07-06T00:05:26.588Z,79.50
2018-07-06T00:09:11.400Z,79.50
2018-07-06T00:12:55.941Z,79.40
2018-07-06T00:16:40.597Z,79.40
2018-07-06T00:20:25.180Z,79.20
2018-07-06T00:24:09.809Z,79.40
2018-07-06T00:31:32.930Z,79.40
2018-07-06T00:35:17.552Z,80.30
2018-07-06T00:39:02.108Z,79.60
2018-07-06T00:42:46.667Z,79.60
2018-07-06T00:46:31.865Z,80.40
2018-07-06T00:57:35.712Z,80.60
2018-07-06T01:01:20.200Z,81.40
2018-07-06T01:08:43.403Z,81.10
2018-07-06T01:12:33.530Z,81.20
2018-07-06T01:16:18.076Z,81.40
2018-07-06T01:20:02.746Z,81.40
2018-07-06T01:23:47.425Z,81.30
2018-07-06T01:27:32.284Z,81.10
2018-07-06T01:31:16.924Z,80.60
2018-07-06T01:38:40.220Z,81.00
2018-07-06T01:46:03.323Z,81.50
2018-07-06T01:49:47.926Z,81.60
2018-07-06T01:53:32.551Z,82.50
2018-07-06T01:57:17.108Z,82.00
2018-07-06T02:01:01.712Z,82.50
2018-07-06T02:04:46.303Z,82.50
2018-07-06T02:08:30.933Z,82.50
2018-07-06T02:12:15.638Z,82.50
2018-07-06T02:16:00.350Z,82.70
2018-07-06T02:19:44.824Z,82.90
2018-07-06T02:23:29.368Z,83.10
2018-07-06T02:27:13.976Z,83.10
2018-07-06T02:30:58.617Z,83.50
2018-07-06T02:34:43.374Z,83.60
2018-07-06T02:38:28.061Z,83.50
2018-07-06T02:42:12.577Z,83.60
2018-07-06T02:45:57.116Z,84.00
2018-07-06T02:49:41.519Z,84.00
2018-07-06T02:53:26.355Z,84.20
2018-07-06T02:57:11.193Z,85.10
2018-07-06T03:00:56.013Z,84.50
2018-07-06T03:04:41.209Z,84.60
2018-07-06T03:12:04.250Z,85.00
2018-07-06T03:15:48.898Z,85.30
2018-07-06T03:19:33.608Z,85.20
2018-07-06T03:23:18.147Z,84.90
2018-07-06T03:27:02.909Z,84.90
2018-07-06T03:30:47.653Z,84.50
2018-07-06T03:38:10.881Z,84.10
2018-07-06T03:41:55.653Z,83.80
2018-07-06T03:45:40.363Z,83.60
2018-07-06T03:49:24.879Z,83.40
2018-07-06T03:53:09.462Z,83.50
2018-07-06T03:56:54.196Z,83.50
2018-07-06T04:00:39.079Z,83.50
2018-07-06T04:04:23.612Z,83.50
2018-07-06T04:08:08.345Z,83.10
2018-07-06T04:11:53.033Z,83.00
2018-07-06T04:15:37.778Z,83.00
2018-07-06T04:19:22.421Z,83.10
2018-07-06T04:23:06.959Z,83.10
2018-07-06T04:26:51.573Z,82.90
2018-07-06T04:30:36.186Z,82.60
2018-07-06T04:34:20.988Z,82.70
2018-07-06T04:38:05.562Z,83.10
2018-07-06T04:41:50.087Z,82.70
2018-07-06T04:45:34.665Z,82.60
2018-07-06T04:49:19.280Z,82.90
2018-07-06T04:53:03.940Z,82.90
2018-07-06T04:56:48.600Z,83.30
2018-07-06T05:00:33.641Z,83.30
2018-07-06T05:04:18.277Z,83.30
2018-07-06T05:08:02.784Z,84.00
2018-07-06T05:11:47.278Z,84.40
2018-07-06T05:15:31.748Z,85.00
2018-07-06T05:19:16.178Z,85.30
2018-07-06T05:23:00.788Z,85.50
2018-07-06T05:26:45.385Z,86.00
2018-07-06T05:30:30.045Z,86.40
2018-07-06T05:37:53.438Z,85.60
2018-07-06T05:41:40.001Z,85.20
2018-07-06T05:45:24.881Z,84.90
2018-07-06T05:49:09.456Z,85.30
2018-07-06T05:52:54.065Z,84.90
2018-07-06T05:56:38.668Z,83.90
2018-07-06T06:00:23.266Z,84.20
2018-07-06T06:04:07.804Z,83.50
2018-07-06T06:07:40.050Z,83.30
2018-07-06T06:11:13.280Z,83.30
2018-07-06T06:14:46.534Z,83.60
2018-07-06T06:21:52.820Z,90.30
2018-07-06T06:28:59.208Z,93.60
2018-07-06T06:32:32.453Z,94.60
2018-07-06T06:36:05.703Z,95.20
2018-07-06T06:39:38.947Z,95.50
2018-07-06T06:43:12.193Z,95.80
2018-07-06T06:46:45.536Z,96.00
2018-07-06T06:50:18.656Z,96.30
2018-07-06T06:53:51.912Z,96.30
2018-07-06T06:57:25.150Z,96.50
2018-07-06T07:00:58.403Z,96.70
2018-07-06T07:04:31.628Z,96.70
2018-07-06T07:08:04.859Z,96.60
2018-07-06T07:11:38.081Z,96.60
2018-07-06T07:15:11.325Z,96.80
2018-07-06T07:18:44.564Z,96.90
2018-07-06T07:22:17.875Z,97.20
2018-07-06T07:25:51.099Z,97.10
2018-07-06T07:29:24.355Z,97.50
2018-07-06T07:32:57.591Z,97.50
2018-07-06T07:36:30.836Z,97.30
2018-07-06T07:40:04.070Z,97.50
2018-07-06T07:43:37.324Z,97.10
2018-07-06T07:47:10.573Z,97.20
2018-07-06T07:50:59.869Z,97.30
2018-07-06T07:54:41.373Z,97.50
2018-07-06T07:58:14.544Z,97.60
2018-07-06T08:01:47.811Z,97.80
2018-07-06T08:05:21.052Z,97.00
2018-07-06T08:08:54.321Z,97.10
2018-07-06T08:12:27.769Z,97.10
2018-07-06T08:16:01.012Z,97.00
2018-07-06T08:19:34.252Z,97.10
2018-07-06T08:23:07.508Z,97.20
2018-07-06T08:26:40.748Z,97.40
2018-07-06T08:30:13.979Z,97.90
2018-07-06T08:37:40.306Z,97.20
2018-07-06T08:41:13.528Z,96.90
2018-07-06T08:44:46.795Z,97.10
2018-07-06T08:48:20.000Z,97.20
2018-07-06T08:51:53.360Z,96.30
2018-07-06T08:55:27.384Z,96.50
2018-07-06T08:59:00.624Z,97.00
2018-07-06T09:02:33.872Z,97.40
2018-07-06T09:09:40.093Z,96.60
2018-07-06T09:13:13.625Z,96.70
2018-07-06T09:16:46.541Z,96.10
2018-07-06T09:20:19.784Z,96.20
2018-07-06T09:23:53.035Z,96.50
2018-07-06T09:27:26.272Z,96.80
2018-07-06T09:30:59.497Z,96.70
2018-07-06T09:34:32.748Z,96.30
2018-07-06T09:38:05.960Z,96.60
2018-07-06T09:45:12.189Z,96.10
2018-07-06T09:48:45.488Z,96.70
2018-07-06T09:52:18.721Z,96.90
2018-07-06T09:55:51.955Z,96.50
2018-07-06T10:02:58.184Z,95.70
2018-07-06T10:06:31.408Z,96.30
2018-07-06T10:10:04.649Z,96.20
2018-07-06T10:13:37.992Z,96.40
2018-07-06T10:17:11.197Z,95.20
2018-07-06T10:20:44.460Z,95.10
2018-07-06T10:24:17.684Z,94.50
2018-07-06T10:28:02.333Z,93.60
2018-07-06T10:31:49.655Z,94.10
2018-07-06T10:35:22.880Z,94.20
2018-07-06T10:38:56.109Z,94.00
2018-07-06T10:42:29.330Z,93.00
2018-07-06T10:46:02.576Z,92.30
2018-07-06T10:49:36.068Z,92.50
2018-07-06T10:53:09.314Z,91.70
2018-07-06T10:56:42.544Z,90.10
2018-07-06T11:00:15.760Z,90.50
2018-07-06T11:03:48.988Z,90.90
2018-07-06T11:07:22.206Z,91.70
2018-07-06T11:10:55.449Z,92.10
2018-07-06T11:14:28.687Z,92.50
2018-07-06T11:18:01.931Z,92.10
2018-07-06T11:21:35.205Z,91.20
2018-07-06T11:25:08.481Z,91.10
2018-07-06T11:28:41.704Z,91.20
2018-07-06T11:32:15.044Z,89.00
2018-07-06T11:35:48.206Z,87.30
2018-07-06T11:39:21.450Z,83.50
2018-07-06T11:42:54.675Z,81.30
2018-07-06T11:46:27.931Z,82.20
2018-07-06T11:50:01.174Z,81.60
2018-07-06T11:53:34.408Z,83.80
2018-07-06T11:57:07.669Z,78.50
2018-07-06T12:00:40.913Z,75.50
2018-07-06T12:04:14.233Z,77.00
2018-07-06T12:07:47.403Z,76.80
2018-07-06T12:11:20.639Z,77.50
2018-07-06T12:18:26.880Z,74.40
2018-07-06T12:22:00.107Z,75.60
2018-07-06T12:25:33.353Z,74.10
2018-07-06T12:29:06.599Z,74.40
2018-07-06T12:32:39.844Z,70.00
2018-07-06T12:36:13.056Z,65.80
2018-07-06T12:39:46.300Z,63.60
2018-07-06T12:43:19.553Z,63.10
2018-07-06T12:46:52.785Z,62.00
2018-07-06T12:50:26.007Z,60.60
2018-07-06T12:53:59.237Z,58.70
2018-07-06T12:57:32.476Z,57.90
2018-07-06T13:01:05.887Z,57.60
2018-07-06T13:04:39.140Z,56.00
2018-07-06T13:08:12.384Z,55.70
2018-07-06T13:11:45.623Z,55.10
2018-07-06T13:15:18.910Z,55.00
2018-07-06T13:18:52.136Z,52.70
2018-07-06T13:22:25.372Z,52.80
2018-07-06T13:25:58.863Z,53.00
2018-07-06T13:29:32.138Z,52.30
2018-07-06T13:33:05.452Z,51.00
2018-07-06T13:36:38.799Z,50.40
2018-07-06T13:40:12.047Z,49.50
2018-07-06T13:43:45.284Z,49.30
2018-07-06T13:47:18.510Z,47.10
2018-07-06T13:50:51.744Z,45.90
2018-07-06T13:54:24.959Z,45.00
2018-07-06T13:57:58.202Z,44.40
2018-07-06T14:01:31.511Z,44.50
2018-07-06T14:05:04.765Z,43.80
2018-07-06T14:08:38.103Z,42.10
2018-07-06T14:12:11.353Z,43.00
2018-07-06T14:15:44.628Z,43.00
2018-07-06T14:19:17.908Z,42.60
2018-07-06T14:22:51.133Z,41.90
2018-07-06T14:26:24.364Z,40.40
2018-07-06T14:29:57.580Z,40.20
2018-07-06T14:33:30.816Z,41.10
2018-07-06T14:37:04.045Z,39.60
2018-07-06T14:40:37.274Z,38.40
2018-07-06T14:44:10.529Z,38.20
2018-07-06T14:47:43.756Z,37.30
2018-07-06T14:51:17.006Z,36.10
2018-07-06T14:54:50.269Z,36.00
2018-07-06T14:58:23.514Z,34.80
2018-07-06T15:01:56.785Z,33.80
2018-07-06T15:05:30.008Z,34.30
2018-07-06T15:09:03.528Z,35.20
2018-07-06T15:12:36.724Z,35.40
2018-07-06T15:16:09.979Z,35.10
2018-07-06T15:19:43.306Z,33.90
2018-07-06T15:23:16.629Z,34.00
2018-07-06T15:26:49.898Z,33.90
2018-07-06T15:30:23.136Z,34.70
2018-07-06T15:33:56.341Z,35.00
2018-07-06T15:37:29.901Z,35.80
2018-07-06T15:41:03.294Z,36.90
2018-07-06T15:51:43.192Z,37.00
2018-07-06T15:55:16.412Z,37.30
2018-07-06T15:58:49.772Z,37.10
2018-07-06T16:02:23.112Z,35.70
2018-07-06T16:05:56.463Z,34.50
2018-07-06T16:13:03.315Z,33.80
2018-07-06T16:16:36.539Z,33.90
2018-07-06T16:20:09.777Z,32.90
2018-07-06T16:23:43.155Z,32.80
2018-07-06T16:27:16.371Z,32.80
2018-07-06T16:34:22.822Z,34.50
2018-07-06T16:37:56.037Z,35.90
2018-07-06T16:41:29.441Z,36.80
2018-07-06T16:45:02.764Z,37.20
2018-07-06T16:52:09.327Z,38.40
2018-07-06T16:55:42.662Z,38.30
2018-07-06T16:59:15.916Z,39.00
2018-07-06T17:02:49.245Z,40.20
2018-07-06T17:06:22.520Z,40.30
2018-07-06T17:09:55.818Z,40.70
2018-07-06T17:13:29.090Z,41.20
2018-07-06T17:17:02.345Z,41.70
2018-07-06T17:20:35.593Z,41.80
2018-07-06T17:24:08.886Z,41.40
2018-07-06T17:27:42.177Z,41.00
2018-07-06T17:34:48.415Z,41.10
2018-07-06T17:38:21.667Z,40.90
2018-07-06T17:45:27.907Z,40.40
2018-07-06T17:49:02.415Z,40.50
2018-07-06T17:52:35.682Z,41.10
2018-07-06T17:56:08.982Z,40.90
2018-07-06T18:03:22.520Z,41.80
2018-07-06T18:06:56.860Z,41.50
2018-07-06T18:10:30.165Z,41.40
2018-07-06T18:14:07.811Z,41.30
2018-07-06T18:17:41.189Z,41.20
2018-07-06T18:24:47.424Z,40.80
2018-07-06T18:28:20.660Z,40.30
2018-07-06T18:31:53.893Z,40.30
2018-07-06T18:35:27.960Z,40.00
2018-07-06T18:39:01.176Z,40.20
2018-07-06T18:42:34.408Z,40.40
2018-07-06T18:46:07.706Z,40.70
2018-07-06T18:56:46.957Z,41.50
2018-07-06T19:00:20.215Z,42.00
2018-07-06T19:03:53.473Z,42.30
2018-07-06T19:07:26.729Z,42.60
2018-07-06T19:10:59.968Z,43.00
2018-07-06T19:14:33.347Z,43.50
2018-07-06T19:18:06.630Z,43.60
2018-07-06T19:21:39.884Z,44.00
2018-07-06T19:25:13.250Z,44.10
2018-07-06T19:28:46.495Z,45.00
2018-07-06T19:35:52.711Z,45.00
2018-07-06T19:39:25.955Z,45.30
2018-07-06T19:42:59.196Z,45.70
2018-07-06T19:46:32.434Z,46.00
2018-07-06T19:50:05.748Z,46.00
2018-07-06T19:57:58.827Z,46.60
2018-07-06T20:01:32.075Z,46.70
2018-07-06T20:05:05.342Z,46.90
2018-07-06T20:08:38.659Z,47.20
2018-07-06T20:12:11.954Z,47.30
2018-07-06T20:15:45.192Z,47.50
2018-07-06T20:19:18.526Z,47.70
2018-07-06T20:22:51.810Z,47.70
2018-07-06T20:26:25.040Z,47.80
2018-07-06T20:29:58.298Z,47.90
2018-07-06T20:33:33.833Z,48.10
2018-07-06T20:37:07.354Z,48.30
2018-07-06T20:44:13.788Z,48.70
2018-07-06T20:47:48.850Z,48.90
2018-07-06T20:51:22.316Z,49.00
2018-07-06T20:54:55.683Z,49.00
2018-07-06T20:58:28.908Z,49.40
2018-07-06T21:02:03.157Z,49.40
2018-07-06T21:05:36.417Z,49.40
2018-07-06T21:09:09.663Z,49.60
2018-07-06T21:12:42.921Z,49.90
2018-07-06T21:19:49.188Z,51.30
2018-07-06T21:23:22.448Z,51.10
2018-07-06T21:26:55.718Z,51.20
2018-07-06T21:34:01.969Z,51.70
2018-07-06T21:37:35.205Z,52.00
2018-07-06T21:44:41.508Z,52.70
2018-07-06T21:48:14.748Z,53.10
2018-07-06T21:51:47.976Z,53.50
2018-07-06T21:55:21.208Z,53.80
2018-07-06T21:58:54.604Z,54.00
2018-07-06T22:02:27.847Z,54.00
2018-07-06T22:06:01.135Z,54.10
2018-07-06T22:09:34.364Z,54.30
2018-07-06T22:13:08.029Z,54.30
2018-07-06T22:16:41.246Z,54.40
2018-07-06T22:20:14.467Z,54.50
2018-07-06T22:23:47.684Z,54.40
2018-07-06T22:27:20.912Z,54.70
2018-07-06T22:30:54.144Z,55.10
2018-07-06T22:34:27.384Z,55.20
2018-07-06T22:38:00.626Z,55.20
2018-07-06T22:41:33.852Z,55.40
2018-07-06T22:45:07.072Z,55.30
2018-07-06T22:48:40.292Z,55.40
2018-07-06T22:52:13.520Z,55.50
2018-07-06T22:55:46.763Z,55.60
2018-07-06T22:59:19.984Z,56.00
2018-07-06T23:02:58.672Z,56.30
2018-07-06T23:06:31.929Z,56.50
2018-07-06T23:13:38.320Z,57.00
2018-07-06T23:17:11.392Z,57.10
2018-07-06T23:20:44.626Z,57.10
2018-07-06T23:24:17.860Z,57.30
2018-07-06T23:27:51.085Z,57.40
2018-07-06T23:31:24.403Z,57.50
2018-07-06T23:34:57.640Z,57.40
2018-07-06T23:38:30.868Z,57.50
2018-07-06T23:42:04.101Z,57.40
2018-07-06T23:45:37.327Z,57.70
2018-07-06T23:52:44.031Z,57.90
2018-07-06T23:56:17.280Z,57.90
2018-07-06T23:59:50.586Z,57.80
